Time;durP1;ratioP1;P1;durP2;ratioP2;P2;SDS_P1;SDS_P2;PMS_P1;PMS_P2;Temp;Humidity;BMP_temperature;BMP_pressure;BME280_temperature;BME280_humidity;BME280_pressure;Samples;Min_cycle;Max_cycle;Signal;HPM_P1;HPM_P2
2021/07/25 00:02:21;;;;;;;93.43;75.78;;;;;;;;;;4250873;33;20101;-85
2021/07/25 00:04:50;;;;;;;80.90;72.10;;;;;;;;;;4242711;33;20463;-85
2021/07/25 00:07:19;;;;;;;79.40;70.50;;;;;;;;;;4245198;33;20069;-86
2021/07/25 00:09:47;;;;;;;82.72;73.25;;;;;;;;;;4253187;33;20061;-86
2021/07/25 00:12:20;;;;;;;79.32;70.65;;;;;;;;;;4258750;33;20963;-86
2021/07/25 00:14:49;;;;;;;88.75;72.07;;;;;;;;;;4254568;33;20557;-85
2021/07/25 00:17:31;;;;;;;93.53;69.18;;;;;;;;;;4436808;32;20449;-83
2021/07/25 00:20:01;;;;;;;92.70;67.70;;;;;;;;;;4423396;32;20431;-83
2021/07/25 00:22:30;;;;;;;91.82;69.62;;;;;;;;;;4427037;32;20085;-84
2021/07/25 00:25:18;;;;;;;93.62;68.47;;;;;;;;;;4424245;32;20066;-84
2021/07/25 00:27:56;;;;;;;102.97;76.28;;;;;;;;;;4424985;32;20073;-83
2021/07/25 00:30:26;;;;;;;105.68;75.68;;;;;;;;;;4419100;32;20448;-84
2021/07/25 00:33:02;;;;;;;105.15;73.75;;;;;;;;;;4421566;32;20117;-83
2021/07/25 00:35:30;;;;;;;103.72;73.03;;;;;;;;;;4421431;32;20137;-83
2021/07/25 00:37:59;;;;;;;108.30;73.55;;;;;;;;;;4424469;32;22455;-83
2021/07/25 00:40:37;;;;;;;77.15;66.68;;;;;;;;;;4418082;32;20072;-83
2021/07/25 00:43:06;;;;;;;91.18;71.78;;;;;;;;;;4423259;32;20101;-83
2021/07/25 00:45:35;;;;;;;83.57;69.47;;;;;;;;;;4424284;32;20341;-82
2021/07/25 00:48:04;;;;;;;90.22;72.28;;;;;;;;;;4423885;32;20053;-83
2021/07/25 00:50:34;;;;;;;99.87;70.97;;;;;;;;;;4409178;32;20135;-83
2021/07/25 00:53:03;;;;;;;89.82;67.28;;;;;;;;;;4419211;32;20042;-82
2021/07/25 00:55:31;;;;;;;94.95;66.12;;;;;;;;;;4420564;32;20089;-83
2021/07/25 00:58:01;;;;;;;89.50;66.45;;;;;;;;;;4422813;32;20637;-83
2021/07/25 01:00:29;;;;;;;92.10;67.97;;;;;;;;;;4418108;32;20069;-83
2021/07/25 01:03:08;;;;;;;90.70;66.40;;;;;;;;;;4427941;32;20130;-83
2021/07/25 01:05:44;;;;;;;107.07;73.80;;;;;;;;;;4426927;32;20049;-84
2021/07/25 01:08:13;;;;;;;108.82;75.05;;;;;;;;;;4424937;32;20110;-85
2021/07/25 01:10:42;;;;;;;101.93;74.68;;;;;;;;;;4426207;32;20124;-84
2021/07/25 01:13:18;;;;;;;109.93;74.53;;;;;;;;;;4430335;32;20602;-84
2021/07/25 01:15:47;;;;;;;106.97;75.40;;;;;;;;;;4428067;32;20060;-84
2021/07/25 01:18:16;;;;;;;84.95;68.00;;;;;;;;;;4421491;32;20058;-85
2021/07/25 01:20:44;;;;;;;78.82;66.93;;;;;;;;;;4424655;32;20475;-84
2021/07/25 01:23:13;;;;;;;75.53;67.65;;;;;;;;;;4421907;32;20381;-84
2021/07/25 01:25:42;;;;;;;75.40;67.20;;;;;;;;;;4418051;32;20302;-85
2021/07/25 01:28:17;;;;;;;77.68;66.93;;;;;;;;;;4419429;32;20173;-84
2021/07/25 01:30:52;;;;;;;102.60;74.12;;;;;;;;;;4414988;32;20490;-85
2021/07/25 01:33:24;;;;;;;89.47;63.30;;;;;;;;;;4400342;32;20356;-85
2021/07/25 01:35:54;;;;;;;95.78;63.63;;;;;;;;;;4415648;32;20089;-84
2021/07/25 01:38:23;;;;;;;85.12;62.83;;;;;;;;;;4407576;32;20066;-84
2021/07/25 01:41:01;;;;;;;88.07;61.90;;;;;;;;;;4405221;32;20110;-85
2021/07/25 01:43:35;;;;;;;85.18;61.70;;;;;;;;;;4414964;32;20041;-85
2021/07/25 01:46:03;;;;;;;98.35;69.55;;;;;;;;;;4400137;32;20503;-85
2021/07/25 01:48:32;;;;;;;92.70;68.53;;;;;;;;;;4407971;32;20050;-84
2021/07/25 01:51:01;;;;;;;103.78;69.25;;;;;;;;;;4407289;32;20554;-84
2021/07/25 01:53:29;;;;;;;97.28;71.40;;;;;;;;;;4408847;32;20051;-85
2021/07/25 01:55:58;;;;;;;96.32;70.57;;;;;;;;;;4418379;32;20074;-83
2021/07/25 01:58:27;;;;;;;90.43;71.32;;;;;;;;;;4407248;32;20110;-84
2021/07/25 02:00:55;;;;;;;85.97;71.97;;;;;;;;;;4406132;32;20157;-84
2021/07/25 02:03:25;;;;;;;74.25;64.95;;;;;;;;;;4415206;32;20046;-84
2021/07/25 02:05:54;;;;;;;79.95;66.07;;;;;;;;;;4407272;32;20094;-84
2021/07/25 02:08:22;;;;;;;103.28;72.10;;;;;;;;;;4407165;32;20137;-84
2021/07/25 02:10:52;;;;;;;86.03;64.20;;;;;;;;;;4407586;32;20505;-84
2021/07/25 02:13:22;;;;;;;83.85;63.17;;;;;;;;;;4406733;32;20308;-85
2021/07/25 02:15:51;;;;;;;91.55;64.68;;;;;;;;;;4400855;32;20170;-85
2021/07/25 02:18:20;;;;;;;82.00;63.78;;;;;;;;;;4410029;32;20101;-85
2021/07/25 02:20:49;;;;;;;82.70;63.85;;;;;;;;;;4410968;32;20118;-85
2021/07/25 02:23:18;;;;;;;83.55;62.97;;;;;;;;;;4415304;32;20637;-83
2021/07/25 02:25:47;;;;;;;95.75;71.93;;;;;;;;;;4415054;32;20069;-84
2021/07/25 02:28:15;;;;;;;94.65;71.62;;;;;;;;;;4412907;32;20172;-84
2021/07/25 02:30:44;;;;;;;96.18;71.78;;;;;;;;;;4415478;32;20135;-84
2021/07/25 02:33:12;;;;;;;100.47;70.55;;;;;;;;;;4422738;32;20042;-85
2021/07/25 02:35:41;;;;;;;75.87;63.03;;;;;;;;;;4413771;32;20054;-84
2021/07/25 02:38:09;;;;;;;72.50;62.92;;;;;;;;;;4408206;32;20084;-84
2021/07/25 02:40:38;;;;;;;82.62;67.47;;;;;;;;;;4408850;32;20435;-84
2021/07/25 02:43:06;;;;;;;75.97;66.68;;;;;;;;;;4415369;32;20059;-85
2021/07/25 02:45:35;;;;;;;86.87;67.70;;;;;;;;;;4412411;32;20085;-85
2021/07/25 02:48:04;;;;;;;87.43;60.70;;;;;;;;;;4399922;32;20498;-85
2021/07/25 02:50:32;;;;;;;82.45;61.22;;;;;;;;;;4412754;32;20108;-85
2021/07/25 02:53:01;;;;;;;82.12;60.33;;;;;;;;;;4411179;32;20083;-85
2021/07/25 02:55:30;;;;;;;87.45;64.55;;;;;;;;;;4419814;32;20054;-84
2021/07/25 02:57:58;;;;;;;86.30;62.70;;;;;;;;;;4411652;32;20587;-84
2021/07/25 03:00:27;;;;;;;83.40;62.45;;;;;;;;;;4408430;32;20049;-84
2021/07/25 03:02:56;;;;;;;84.22;63.95;;;;;;;;;;4416887;32;20094;-85
2021/07/25 03:05:25;;;;;;;81.30;63.08;;;;;;;;;;4415027;32;20139;-84
2021/07/25 03:07:53;;;;;;;76.62;62.40;;;;;;;;;;4410203;32;20121;-84
2021/07/25 10:11:22;;;;;;;11.20;3.00;;;;;;;;;;4757257;27;20294;-84
2021/07/25 10:13:51;;;;;;;;;;;;;;;;;;4317396;33;20371;-85
2021/07/25 10:16:20;;;;;;;10.63;2.72;;;;;;;;;;4309509;33;20089;-85
2021/07/25 10:18:48;;;;;;;10.52;2.95;;;;;;;;;;4310915;33;20167;-85
2021/07/25 10:21:18;;;;;;;12.37;3.40;;;;;;;;;;4312999;33;20124;-86
2021/07/25 10:23:55;;;;;;;11.10;2.85;;;;;;;;;;4316711;33;20493;-85
2021/07/25 10:26:27;;;;;;;13.23;3.45;;;;;;;;;;4316852;33;20044;-85
2021/07/25 10:28:57;;;;;;;8.45;2.75;;;;;;;;;;4307584;33;20060;-85
2021/07/25 10:31:26;;;;;;;8.23;2.65;;;;;;;;;;4320464;33;20119;-85
2021/07/25 10:33:55;;;;;;;8.48;2.50;;;;;;;;;;4317114;33;20056;-85
2021/07/25 10:36:24;;;;;;;8.90;2.65;;;;;;;;;;4317475;33;20513;-85
2021/07/25 10:38:53;;;;;;;12.45;3.20;;;;;;;;;;4317383;33;20084;-86
2021/07/25 10:41:23;;;;;;;10.20;3.33;;;;;;;;;;4316874;33;20514;-86
2021/07/25 10:43:52;;;;;;;10.60;3.22;;;;;;;;;;4301601;33;20045;-85
2021/07/25 10:46:22;;;;;;;11.95;2.78;;;;;;;;;;4312016;33;20104;-85
2021/07/25 10:49:00;;;;;;;17.00;3.20;;;;;;;;;;4319613;33;20150;-85
2021/07/25 10:51:29;;;;;;;11.30;2.90;;;;;;;;;;4308725;33;20114;-85
2021/07/25 10:54:15;;;;;;;15.68;3.22;;;;;;;;;;4311667;33;20049;-85
2021/07/25 10:57:03;;;;;;;10.20;3.08;;;;;;;;;;4305221;33;20082;-85
2021/07/25 10:59:48;;;;;;;10.73;3.15;;;;;;;;;;4300816;33;20398;-86
2021/07/25 11:02:24;;;;;;;8.30;2.60;;;;;;;;;;4310469;33;20491;-86
2021/07/25 11:04:58;;;;;;;8.50;2.25;;;;;;;;;;4311213;33;20040;-85
2021/07/25 11:07:27;;;;;;;9.27;2.53;;;;;;;;;;4310647;33;20059;-85
2021/07/25 11:10:07;;;;;;;12.63;2.87;;;;;;;;;;4314189;33;20131;-86
2021/07/25 11:12:51;;;;;;;9.23;2.62;;;;;;;;;;4308712;33;20053;-86
2021/07/25 11:15:19;;;;;;;;;;;;;;;;;;4316755;33;20306;-85
2021/07/25 11:17:49;;;;;;;6.57;2.50;;;;;;;;;;4298149;33;19948;-86
2021/07/25 11:20:35;;;;;;;9.13;2.90;;;;;;;;;;4307795;33;20079;-85
2021/07/25 11:23:25;;;;;;;9.18;2.70;;;;;;;;;;4318419;33;20055;-85
2021/07/25 11:25:54;;;;;;;9.20;2.87;;;;;;;;;;4290632;33;20036;-84
2021/07/25 11:28:40;;;;;;;12.20;3.15;;;;;;;;;;4315523;33;20486;-85
2021/07/25 11:31:09;;;;;;;11.38;2.95;;;;;;;;;;4315164;33;20123;-84
2021/07/25 11:33:38;;;;;;;13.68;3.10;;;;;;;;;;4318273;33;20363;-85
2021/07/25 11:36:08;;;;;;;12.90;2.83;;;;;;;;;;4319344;33;20131;-84
2021/07/25 11:38:40;;;;;;;12.02;2.90;;;;;;;;;;4316973;33;20037;-84
2021/07/25 11:41:09;;;;;;;8.63;2.80;;;;;;;;;;4315687;33;20399;-85
2021/07/25 11:43:52;;;;;;;10.52;2.80;;;;;;;;;;4314742;33;20690;-85
2021/07/25 11:46:22;;;;;;;8.52;2.50;;;;;;;;;;4320329;33;20170;-85
2021/07/25 11:49:02;;;;;;;5.90;2.20;;;;;;;;;;4314874;33;20115;-85
2021/07/25 11:51:32;;;;;;;10.60;2.87;;;;;;;;;;4316027;33;20056;-84
2021/07/25 11:54:00;;;;;;;10.82;2.60;;;;;;;;;;4314282;33;20224;-85
2021/07/25 11:56:29;;;;;;;8.40;2.45;;;;;;;;;;4315172;33;20444;-85
2021/07/25 11:58:59;;;;;;;8.30;2.40;;;;;;;;;;4310053;33;20091;-84
2021/07/25 12:01:28;;;;;;;9.77;2.58;;;;;;;;;;4306727;33;20076;-85
2021/07/25 12:03:57;;;;;;;6.93;2.30;;;;;;;;;;4312734;33;20111;-85
2021/07/25 12:06:26;;;;;;;9.48;2.17;;;;;;;;;;4307491;33;20057;-85
2021/07/25 12:09:04;;;;;;;11.93;2.87;;;;;;;;;;4313775;33;20056;-85
2021/07/25 12:11:34;;;;;;;11.75;3.33;;;;;;;;;;4311937;33;20107;-85
2021/07/25 12:14:02;;;;;;;11.30;2.97;;;;;;;;;;4316736;33;20113;-84
2021/07/25 12:16:51;;;;;;;9.23;2.50;;;;;;;;;;4305162;33;20048;-85
2021/07/25 12:19:20;;;;;;;11.48;3.25;;;;;;;;;;4312465;33;20040;-85
2021/07/25 12:21:49;;;;;;;9.15;2.10;;;;;;;;;;4319757;33;20108;-85
2021/07/25 12:24:30;;;;;;;7.72;2.17;;;;;;;;;;4311152;33;20106;-85
2021/07/25 12:27:00;;;;;;;10.15;2.42;;;;;;;;;;4317853;33;20049;-85
2021/07/25 12:29:39;;;;;;;8.75;2.60;;;;;;;;;;4313194;33;20147;-85
2021/07/25 12:32:21;;;;;;;7.05;2.45;;;;;;;;;;4312054;33;20052;-85
2021/07/25 12:34:54;;;;;;;10.57;2.60;;;;;;;;;;4314455;33;20134;-84
2021/07/25 12:37:31;;;;;;;11.30;3.20;;;;;;;;;;4320346;33;20049;-84
2021/07/25 12:40:04;;;;;;;10.63;2.40;;;;;;;;;;4324946;33;20084;-85
2021/07/25 12:42:36;;;;;;;27.92;3.90;;;;;;;;;;4314211;33;20428;-85
2021/07/25 12:45:23;;;;;;;8.73;2.60;;;;;;;;;;4313686;33;20199;-85
2021/07/25 12:48:28;;;;;;;10.57;2.60;;;;;;;;;;4316780;33;20074;-85
2021/07/25 12:54:00;;;;;;;12.90;2.97;;;;;;;;;;4303468;33;20165;-85
2021/07/25 12:56:33;;;;;;;8.52;2.30;;;;;;;;;;4300940;33;20684;-85
2021/07/25 12:59:04;;;;;;;10.85;2.75;;;;;;;;;;4310667;33;20076;-85
2021/07/25 13:04:07;;;;;;;9.77;2.60;;;;;;;;;;4329708;33;20085;-84
2021/07/25 13:06:41;;;;;;;12.45;2.67;;;;;;;;;;4318713;33;20395;-84
2021/07/25 13:09:11;;;;;;;27.15;4.03;;;;;;;;;;4320312;33;20047;-85
2021/07/25 13:11:42;;;;;;;10.65;2.78;;;;;;;;;;4314777;33;20041;-84
2021/07/25 13:14:11;;;;;;;11.20;2.53;;;;;;;;;;4319225;33;20107;-84
2021/07/25 13:16:44;;;;;;;14.27;2.87;;;;;;;;;;4315511;33;20100;-85
2021/07/25 13:19:14;;;;;;;9.45;2.33;;;;;;;;;;4311134;33;20135;-84
2021/07/25 13:21:42;;;;;;;10.02;2.37;;;;;;;;;;4315487;33;20575;-84
2021/07/25 13:24:12;;;;;;;9.52;2.47;;;;;;;;;;4318613;33;20534;-84
2021/07/25 13:26:42;;;;;;;12.63;2.97;;;;;;;;;;4316666;33;20114;-85
2021/07/25 13:29:12;;;;;;;12.27;2.92;;;;;;;;;;4315395;33;20079;-85
2021/07/25 13:31:42;;;;;;;10.85;2.83;;;;;;;;;;4317755;33;20075;-85
2021/07/25 13:34:11;;;;;;;14.75;2.70;;;;;;;;;;4315326;33;20598;-85
2021/07/25 13:36:39;;;;;;;8.13;2.35;;;;;;;;;;4310979;33;20066;-85
2021/07/25 13:39:08;;;;;;;9.73;2.62;;;;;;;;;;4317438;33;20176;-85
2021/07/25 13:41:37;;;;;;;8.50;2.80;;;;;;;;;;4315127;33;20075;-86
2021/07/25 13:44:06;;;;;;;8.30;2.22;;;;;;;;;;4323815;33;20044;-85
2021/07/25 13:49:37;;;;;;;10.90;2.58;;;;;;;;;;4292315;33;20728;-86
2021/07/25 13:52:06;;;;;;;19.80;3.25;;;;;;;;;;4317383;33;20546;-85
2021/07/25 13:54:36;;;;;;;10.80;2.80;;;;;;;;;;4301884;33;20110;-86
2021/07/25 13:57:05;;;;;;;8.23;2.28;;;;;;;;;;4319328;33;20190;-85
2021/07/25 13:59:33;;;;;;;8.48;2.40;;;;;;;;;;4316076;33;20442;-85
2021/07/25 14:02:02;;;;;;;9.88;3.03;;;;;;;;;;4297690;33;20438;-85
2021/07/25 14:04:31;;;;;;;13.25;3.17;;;;;;;;;;4315593;33;20087;-85
2021/07/25 14:06:59;;;;;;;10.35;3.35;;;;;;;;;;4314584;33;20045;-84
2021/07/25 14:09:29;;;;;;;10.55;2.92;;;;;;;;;;4313773;33;20107;-85
2021/07/25 14:11:59;;;;;;;9.52;2.70;;;;;;;;;;4315015;33;20447;-84
2021/07/25 14:14:30;;;;;;;9.93;2.55;;;;;;;;;;4314533;33;20044;-85
2021/07/25 14:17:03;;;;;;;56.88;5.97;;;;;;;;;;4319889;33;20140;-84
2021/07/25 14:19:32;;;;;;;21.08;3.58;;;;;;;;;;4310687;33;20102;-85
2021/07/25 14:22:03;;;;;;;11.07;2.72;;;;;;;;;;4318975;33;20040;-85
2021/07/25 14:24:32;;;;;;;9.88;3.10;;;;;;;;;;4313957;33;20050;-85
2021/07/25 14:27:00;;;;;;;10.25;3.05;;;;;;;;;;4319782;33;20056;-85
2021/07/25 14:29:29;;;;;;;20.15;3.30;;;;;;;;;;4315393;33;20553;-85
2021/07/25 14:31:57;;;;;;;7.37;2.78;;;;;;;;;;4318369;33;21407;-84
2021/07/25 14:34:26;;;;;;;9.57;3.15;;;;;;;;;;4315710;33;20104;-85
2021/07/25 14:36:54;;;;;;;11.20;2.70;;;;;;;;;;4318723;33;20079;-85
2021/07/25 14:39:23;;;;;;;10.65;3.08;;;;;;;;;;4313723;33;20424;-85
2021/07/25 14:41:51;;;;;;;8.77;3.08;;;;;;;;;;4314745;33;20141;-85
2021/07/25 14:44:20;;;;;;;10.35;3.80;;;;;;;;;;4319432;33;20056;-85
2021/07/25 14:46:50;;;;;;;13.43;3.22;;;;;;;;;;4316020;33;20112;-84
2021/07/25 14:49:19;;;;;;;10.05;3.40;;;;;;;;;;4312505;33;20139;-84
2021/07/25 14:51:47;;;;;;;10.90;3.12;;;;;;;;;;4313148;33;20526;-85
2021/07/25 14:54:16;;;;;;;34.50;4.35;;;;;;;;;;4314272;33;20361;-85
2021/07/25 14:56:44;;;;;;;12.57;3.20;;;;;;;;;;4312795;33;20108;-85
2021/07/25 14:59:13;;;;;;;10.88;2.80;;;;;;;;;;4302427;33;20120;-85
2021/07/25 15:01:42;;;;;;;9.45;2.65;;;;;;;;;;4312887;33;20161;-85
2021/07/25 15:04:11;;;;;;;11.00;2.90;;;;;;;;;;4317206;33;20118;-85
2021/07/25 15:06:39;;;;;;;11.85;2.50;;;;;;;;;;4313869;33;20532;-86
2021/07/25 15:09:08;;;;;;;9.80;2.92;;;;;;;;;;4314374;33;20048;-85
2021/07/25 15:11:36;;;;;;;12.93;3.12;;;;;;;;;;4292944;33;20063;-85
2021/07/25 15:14:05;;;;;;;12.77;3.60;;;;;;;;;;4314860;33;20096;-86
2021/07/25 15:16:34;;;;;;;7.87;2.47;;;;;;;;;;4308543;33;20099;-85
2021/07/25 15:19:03;;;;;;;12.85;3.37;;;;;;;;;;4318845;33;20498;-84
2021/07/25 15:21:32;;;;;;;11.32;3.03;;;;;;;;;;4318000;33;20035;-85
2021/07/25 15:24:00;;;;;;;13.55;3.87;;;;;;;;;;4314079;33;20115;-85
2021/07/25 15:26:29;;;;;;;11.18;2.92;;;;;;;;;;4317379;33;20074;-85
2021/07/25 15:28:57;;;;;;;8.65;3.35;;;;;;;;;;4301766;33;20106;-85
2021/07/25 15:31:26;;;;;;;12.95;3.72;;;;;;;;;;4319818;33;20395;-85
2021/07/25 15:33:55;;;;;;;10.05;3.67;;;;;;;;;;4314348;33;20075;-85
2021/07/25 15:36:24;;;;;;;11.02;4.12;;;;;;;;;;4290984;33;20494;-84
2021/07/25 15:38:53;;;;;;;12.32;3.60;;;;;;;;;;4314509;33;20110;-85
2021/07/25 15:41:21;;;;;;;11.68;4.95;;;;;;;;;;4313849;33;20103;-85
2021/07/25 15:43:50;;;;;;;9.57;4.05;;;;;;;;;;4316449;33;20158;-85
2021/07/25 15:46:23;;;;;;;11.48;4.12;;;;;;;;;;4315800;33;20070;-85
2021/07/25 15:48:52;;;;;;;14.95;4.87;;;;;;;;;;4302028;33;20076;-85
2021/07/25 15:51:20;;;;;;;12.70;3.87;;;;;;;;;;4314337;33;20036;-85
2021/07/25 15:53:49;;;;;;;22.00;5.68;;;;;;;;;;4321532;33;20074;-84
2021/07/25 15:56:18;;;;;;;15.15;4.85;;;;;;;;;;4312909;33;20088;-84
2021/07/25 15:58:46;;;;;;;12.00;5.18;;;;;;;;;;4311495;33;20150;-84
2021/07/25 16:01:18;;;;;;;15.60;7.45;;;;;;;;;;4314697;33;20555;-85
2021/07/25 16:03:47;;;;;;;12.68;6.03;;;;;;;;;;4312356;33;20114;-85
2021/07/25 16:06:19;;;;;;;10.60;5.00;;;;;;;;;;4312116;33;20150;-86
2021/07/25 16:08:49;;;;;;;12.82;6.20;;;;;;;;;;4315033;33;20119;-85
2021/07/25 16:11:22;;;;;;;10.63;5.15;;;;;;;;;;4320883;33;20515;-84
2021/07/25 16:13:51;;;;;;;10.18;6.30;;;;;;;;;;4305729;33;20486;-84
2021/07/25 16:16:20;;;;;;;14.32;5.62;;;;;;;;;;4318957;33;20154;-85
2021/07/25 16:18:49;;;;;;;12.40;6.28;;;;;;;;;;4316520;33;20088;-85
2021/07/25 16:21:23;;;;;;;14.45;7.55;;;;;;;;;;4323608;33;20075;-85
2021/07/25 16:23:52;;;;;;;13.93;11.90;;;;;;;;;;4325928;33;20056;-85
2021/07/25 16:26:21;;;;;;;20.92;18.92;;;;;;;;;;4317332;33;20083;-85
2021/07/25 16:28:50;;;;;;;32.85;10.93;;;;;;;;;;4324053;33;20138;-85
2021/07/25 16:31:20;;;;;;;32.70;30.05;;;;;;;;;;4314645;33;20438;-85
2021/07/25 16:33:50;;;;;;;11.23;8.45;;;;;;;;;;4322008;33;20062;-85
2021/07/25 16:36:21;;;;;;;14.07;10.65;;;;;;;;;;4299160;33;20121;-84
2021/07/25 16:38:51;;;;;;;19.08;17.17;;;;;;;;;;4307925;33;20115;-85
2021/07/25 16:41:19;;;;;;;19.12;17.23;;;;;;;;;;4311080;33;20430;-85
2021/07/25 16:43:48;;;;;;;29.83;27.52;;;;;;;;;;4314646;33;20095;-85
2021/07/25 16:46:18;;;;;;;20.65;18.75;;;;;;;;;;4324113;33;20130;-86
2021/07/25 16:48:47;;;;;;;23.48;19.37;;;;;;;;;;4313868;33;20127;-86
2021/07/25 16:51:15;;;;;;;19.30;17.65;;;;;;;;;;4318147;33;20078;-86
2021/07/25 16:53:44;;;;;;;18.83;17.15;;;;;;;;;;4320374;33;20145;-85
2021/07/25 16:56:13;;;;;;;14.82;12.00;;;;;;;;;;4312000;33;20112;-85
2021/07/25 16:58:41;;;;;;;20.42;18.83;;;;;;;;;;4324024;33;20040;-85
2021/07/25 17:01:10;;;;;;;31.77;28.98;;;;;;;;;;4329118;33;20093;-85
2021/07/25 17:03:39;;;;;;;29.30;26.55;;;;;;;;;;4327247;33;20600;-85
2021/07/25 17:06:07;;;;;;;45.35;41.90;;;;;;;;;;4324523;33;20115;-86
2021/07/25 17:08:36;;;;;;;30.70;28.17;;;;;;;;;;4323593;33;20470;-85
2021/07/25 17:11:18;;;;;;;18.58;15.82;;;;;;;;;;4321175;33;20193;-85
2021/07/25 17:13:47;;;;;;;32.10;12.37;;;;;;;;;;4322358;33;20203;-85
2021/07/25 17:16:23;;;;;;;22.42;19.98;;;;;;;;;;4307431;33;20060;-86
2021/07/25 17:18:53;;;;;;;38.72;35.17;;;;;;;;;;4306086;33;20159;-85
2021/07/25 17:21:22;;;;;;;50.17;46.37;;;;;;;;;;4301098;33;20070;-85
2021/07/25 17:23:50;;;;;;;19.40;17.35;;;;;;;;;;4315089;33;20501;-85
2021/07/25 17:26:19;;;;;;;43.67;39.50;;;;;;;;;;4320768;33;20537;-85
2021/07/25 17:28:48;;;;;;;16.67;15.02;;;;;;;;;;4317524;33;20126;-85
2021/07/25 17:31:20;;;;;;;37.92;35.40;;;;;;;;;;4323210;33;20116;-85
2021/07/25 17:33:48;;;;;;;20.15;18.25;;;;;;;;;;4318235;33;20481;-86
2021/07/25 17:36:17;;;;;;;27.48;19.20;;;;;;;;;;4324359;33;20130;-85
2021/07/25 17:38:46;;;;;;;20.17;17.75;;;;;;;;;;4317430;33;20087;-86
2021/07/25 17:41:16;;;;;;;57.47;19.25;;;;;;;;;;4323751;33;20120;-86
2021/07/25 17:43:44;;;;;;;30.42;26.45;;;;;;;;;;4321901;33;20478;-85
2021/07/25 17:46:14;;;;;;;24.73;22.42;;;;;;;;;;4326947;33;20048;-86
2021/07/25 17:48:43;;;;;;;24.98;22.42;;;;;;;;;;4320964;33;20040;-84
2021/07/25 17:51:21;;;;;;;28.60;25.50;;;;;;;;;;4324665;33;20041;-85
2021/07/25 17:53:50;;;;;;;63.10;23.42;;;;;;;;;;4319313;33;20078;-86
2021/07/25 17:56:18;;;;;;;23.25;16.15;;;;;;;;;;4320466;33;20423;-85
2021/07/25 17:58:46;;;;;;;33.92;28.42;;;;;;;;;;4324020;33;20127;-85
2021/07/25 18:01:16;;;;;;;29.02;26.02;;;;;;;;;;4319680;33;20084;-85
2021/07/25 18:03:45;;;;;;;35.33;29.27;;;;;;;;;;4315256;33;20113;-85
2021/07/25 18:06:19;;;;;;;32.67;28.33;;;;;;;;;;4320072;33;20090;-85
2021/07/25 18:08:48;;;;;;;29.23;26.25;;;;;;;;;;4324627;33;20088;-85
2021/07/25 18:11:17;;;;;;;46.25;33.75;;;;;;;;;;4320643;33;20052;-85
2021/07/25 18:13:45;;;;;;;81.55;69.25;;;;;;;;;;4318282;33;20056;-85
2021/07/25 18:16:15;;;;;;;55.70;48.90;;;;;;;;;;4315584;33;20146;-84
2021/07/25 18:18:44;;;;;;;85.97;48.67;;;;;;;;;;4312836;33;20084;-86
2021/07/25 18:21:16;;;;;;;55.15;44.80;;;;;;;;;;4323565;33;20049;-85
2021/07/25 18:23:46;;;;;;;76.90;56.35;;;;;;;;;;4316958;33;20112;-85
2021/07/25 18:26:15;;;;;;;68.37;54.85;;;;;;;;;;4316534;33;20495;-86
2021/07/25 18:28:43;;;;;;;138.18;125.12;;;;;;;;;;4318370;33;20068;-86
2021/07/25 18:31:12;;;;;;;158.05;141.40;;;;;;;;;;4317666;33;20044;-85
2021/07/25 18:33:41;;;;;;;165.02;147.30;;;;;;;;;;4315457;33;20139;-86
2021/07/25 18:36:13;;;;;;;180.35;152.80;;;;;;;;;;4323390;33;20381;-85
2021/07/25 18:38:43;;;;;;;195.68;161.00;;;;;;;;;;4316951;33;20033;-86
2021/07/25 18:41:11;;;;;;;183.62;155.90;;;;;;;;;;4309072;33;20427;-86
2021/07/25 18:43:56;;;;;;;179.55;160.65;;;;;;;;;;4317864;33;20111;-86
2021/07/25 18:46:25;;;;;;;171.77;153.57;;;;;;;;;;4326263;33;20109;-86
2021/07/25 18:48:53;;;;;;;169.48;150.82;;;;;;;;;;4314393;33;20056;-85
2021/07/25 18:51:27;;;;;;;223.20;169.65;;;;;;;;;;4320173;33;20131;-85
2021/07/25 18:54:00;;;;;;;227.65;169.27;;;;;;;;;;4313214;33;20081;-85
2021/07/25 18:56:48;;;;;;;215.27;164.02;;;;;;;;;;4320554;33;20505;-85
2021/07/25 18:59:16;;;;;;;214.52;163.62;;;;;;;;;;4318497;33;20047;-85
2021/07/25 19:02:05;;;;;;;202.90;163.65;;;;;;;;;;4318615;33;20095;-85
2021/07/25 19:04:34;;;;;;;208.02;162.95;;;;;;;;;;4317609;33;20484;-85
2021/07/25 19:07:03;;;;;;;202.52;157.30;;;;;;;;;;4321151;33;20063;-85
2021/07/25 19:09:32;;;;;;;170.77;133.45;;;;;;;;;;4317637;33;20060;-85
2021/07/25 19:12:00;;;;;;;161.15;130.90;;;;;;;;;;4313200;33;20525;-85
2021/07/25 19:14:29;;;;;;;160.70;135.40;;;;;;;;;;4312598;33;20103;-86
2021/07/25 19:16:58;;;;;;;174.32;138.12;;;;;;;;;;4327040;33;20113;-85
2021/07/25 19:19:26;;;;;;;166.30;135.35;;;;;;;;;;4320965;33;20755;-85
2021/07/25 19:21:55;;;;;;;166.93;127.75;;;;;;;;;;4322318;33;20059;-85
2021/07/25 19:24:24;;;;;;;161.15;134.50;;;;;;;;;;4317585;33;20060;-85
2021/07/25 19:26:53;;;;;;;158.60;114.68;;;;;;;;;;4331460;33;20064;-85
2021/07/25 19:29:21;;;;;;;279.20;192.45;;;;;;;;;;4320824;33;21427;-84
2021/07/25 19:31:50;;;;;;;178.57;128.68;;;;;;;;;;4312519;33;20079;-85
2021/07/25 19:34:33;;;;;;;186.77;127.25;;;;;;;;;;4313791;33;20102;-85
2021/07/25 19:37:03;;;;;;;181.57;122.15;;;;;;;;;;4325648;33;20120;-85
2021/07/25 19:39:31;;;;;;;192.48;129.98;;;;;;;;;;4318482;33;20078;-85
2021/07/25 19:41:59;;;;;;;185.02;127.87;;;;;;;;;;4327037;33;20067;-85
2021/07/25 19:44:32;;;;;;;146.13;106.80;;;;;;;;;;4318728;33;20720;-85
2021/07/25 19:47:00;;;;;;;143.60;103.78;;;;;;;;;;4304548;33;20135;-85
2021/07/25 19:49:30;;;;;;;135.57;101.00;;;;;;;;;;4310273;33;20068;-85
2021/07/25 19:52:03;;;;;;;142.07;107.32;;;;;;;;;;4318287;33;20542;-85
2021/07/25 19:54:32;;;;;;;142.50;108.33;;;;;;;;;;4329267;33;20039;-85
2021/07/25 19:57:01;;;;;;;140.65;106.72;;;;;;;;;;4324326;33;20071;-86
2021/07/25 19:59:47;;;;;;;182.82;134.65;;;;;;;;;;4323724;33;20464;-85
2021/07/25 20:02:16;;;;;;;170.12;125.97;;;;;;;;;;4319969;33;20084;-85
2021/07/25 20:04:45;;;;;;;134.55;110.30;;;;;;;;;;4317734;33;20139;-85
2021/07/25 20:07:30;;;;;;;140.50;109.25;;;;;;;;;;4317431;33;20060;-86
2021/07/25 20:10:00;;;;;;;142.68;112.37;;;;;;;;;;4317352;33;20467;-85
2021/07/25 20:12:42;;;;;;;161.05;117.22;;;;;;;;;;4316762;33;20064;-85
2021/07/25 20:15:11;;;;;;;164.18;120.75;;;;;;;;;;4314216;33;20074;-85
2021/07/25 20:17:40;;;;;;;161.80;116.72;;;;;;;;;;4317958;33;20072;-84
2021/07/25 20:20:08;;;;;;;129.82;99.15;;;;;;;;;;4314253;33;20068;-85
2021/07/25 20:22:37;;;;;;;133.20;100.03;;;;;;;;;;4319971;33;20134;-84
2021/07/25 20:25:06;;;;;;;131.00;99.70;;;;;;;;;;4319052;33;20557;-85
2021/07/25 20:27:34;;;;;;;150.85;111.57;;;;;;;;;;4321324;33;20052;-86
2021/07/25 20:30:03;;;;;;;128.10;106.05;;;;;;;;;;4319279;33;20174;-85
2021/07/25 20:32:32;;;;;;;131.12;104.12;;;;;;;;;;4315493;33;20127;-86
2021/07/25 20:35:13;;;;;;;112.90;100.95;;;;;;;;;;4317452;33;20466;-86
2021/07/25 20:37:42;;;;;;;112.88;100.68;;;;;;;;;;4317979;33;20097;-86
2021/07/25 20:40:10;;;;;;;107.50;96.18;;;;;;;;;;4320653;33;20036;-85
2021/07/25 20:42:43;;;;;;;140.65;106.97;;;;;;;;;;4321637;33;20075;-86
2021/07/25 20:45:11;;;;;;;146.50;106.07;;;;;;;;;;4304425;33;20366;-85
2021/07/25 20:47:40;;;;;;;144.73;106.90;;;;;;;;;;4313641;33;20313;-85
2021/07/25 20:50:09;;;;;;;143.80;105.03;;;;;;;;;;4317073;33;20071;-86
2021/07/25 20:52:40;;;;;;;127.82;96.18;;;;;;;;;;4319025;33;20076;-85
2021/07/25 20:55:09;;;;;;;131.87;97.12;;;;;;;;;;4314811;33;20609;-86
2021/07/25 20:57:38;;;;;;;135.50;96.03;;;;;;;;;;4314151;33;20166;-86
2021/07/25 21:00:07;;;;;;;126.65;97.20;;;;;;;;;;4314756;33;20559;-86
2021/07/25 21:02:36;;;;;;;105.72;80.62;;;;;;;;;;4311404;33;20080;-86
2021/07/25 21:05:05;;;;;;;106.47;87.00;;;;;;;;;;4314127;33;20064;-86
2021/07/25 21:07:47;;;;;;;104.25;86.22;;;;;;;;;;4325380;33;20115;-86
2021/07/25 21:10:15;;;;;;;106.53;84.32;;;;;;;;;;4322293;33;20051;-85
2021/07/25 21:12:44;;;;;;;119.20;96.63;;;;;;;;;;4320973;33;20420;-85
2021/07/25 21:15:12;;;;;;;107.12;90.32;;;;;;;;;;4321093;33;20082;-85
2021/07/25 21:17:41;;;;;;;110.07;85.72;;;;;;;;;;4326881;33;20041;-85
2021/07/25 21:20:10;;;;;;;109.30;85.25;;;;;;;;;;4316565;33;20076;-85
2021/07/25 21:22:38;;;;;;;106.20;85.65;;;;;;;;;;4327905;33;20127;-86
2021/07/25 21:25:07;;;;;;;108.57;83.37;;;;;;;;;;4320508;33;20107;-85
2021/07/25 21:27:36;;;;;;;121.82;90.65;;;;;;;;;;4321192;33;20522;-85
2021/07/25 21:30:05;;;;;;;117.80;90.00;;;;;;;;;;4318783;33;20056;-85
2021/07/25 21:32:33;;;;;;;121.20;88.97;;;;;;;;;;4316605;33;20087;-85
2021/07/25 21:35:01;;;;;;;110.40;81.07;;;;;;;;;;4312406;33;20100;-85
2021/07/25 21:37:30;;;;;;;118.53;85.28;;;;;;;;;;4318743;33;20083;-86
2021/07/25 21:39:59;;;;;;;116.10;85.45;;;;;;;;;;4326122;33;20092;-86
2021/07/25 21:42:27;;;;;;;88.45;78.95;;;;;;;;;;4318748;33;20403;-85
2021/07/25 21:44:56;;;;;;;113.05;98.10;;;;;;;;;;4311203;33;20106;-87
2021/07/25 21:47:24;;;;;;;95.97;84.43;;;;;;;;;;4317954;33;20056;-86
2021/07/25 21:49:53;;;;;;;100.95;83.80;;;;;;;;;;4298851;33;20068;-85